Time;durP1;ratioP1;P1;durP2;ratioP2;P2;SDS_P1;SDS_P2;PMS_P1;PMS_P2;Temp;Humidity;BMP_temperature;BMP_pressure;BME280_temperature;BME280_humidity;BME280_pressure;Samples;Min_cycle;Max_cycle;Signal;HPM_P1;HPM_P2
2022/03/28 00:02:07;;;;;;;28.02;18.13;;;;;;;30.76;63.90;100944.59;4999483;28;67699;-38
2022/03/28 00:04:39;;;;;;;33.80;18.13;;;;;;;31.06;64.11;100990.88;5012614;28;66337;-37
2022/03/28 00:07:10;;;;;;;27.48;17.85;;;;;;;30.97;63.56;100962.41;5019235;28;68288;-38
2022/03/28 00:09:41;;;;;;;47.55;19.65;;;;;;;31.07;64.78;100973.59;5016647;28;65470;-37
2022/03/28 00:12:12;;;;;;;45.40;24.43;;;;;;;31.13;66.02;100983.53;4999344;28;70296;-39
2022/03/28 00:14:43;;;;;;;50.53;29.07;;;;;;;31.25;65.15;100988.25;5019484;28;66163;-39
2022/03/28 00:17:15;;;;;;;53.10;31.85;;;;;;;31.28;66.31;100993.22;5019256;28;70349;-38
2022/03/28 00:19:45;;;;;;;54.30;28.05;;;;;;;31.30;67.03;100983.00;4998361;28;66789;-38
2022/03/28 00:22:17;;;;;;;47.10;27.90;;;;;;;31.29;67.02;100981.34;5000919;28;70463;-37
2022/03/28 00:24:48;;;;;;;48.67;25.30;;;;;;;31.40;67.42;100991.50;5018086;28;66648;-39
2022/03/28 00:27:20;;;;;;;47.65;24.38;;;;;;;31.44;67.23;100989.19;5000678;28;69952;-39
2022/03/28 00:29:51;;;;;;;38.87;23.77;;;;;;;31.43;66.68;101001.91;4976667;28;65138;-38
2022/03/28 00:32:22;;;;;;;40.33;21.83;;;;;;;31.50;66.81;100999.97;4983492;28;69850;-40
2022/03/28 00:34:55;;;;;;;32.83;20.30;;;;;;;31.48;66.38;100991.25;4978194;28;66262;-38
2022/03/28 00:37:27;;;;;;;44.17;20.17;;;;;;;31.56;66.59;101004.47;4984307;28;70409;-39
2022/03/28 00:39:59;;;;;;;34.88;19.33;;;;;;;31.55;67.29;100997.41;4993316;28;66065;-38
2022/03/28 00:42:30;;;;;;;24.90;17.05;;;;;;;31.70;63.58;101001.66;4994933;28;69364;-37
2022/03/28 00:45:01;;;;;;;21.42;15.85;;;;;;;31.84;62.43;101011.31;4977625;28;65682;-37
2022/03/28 00:47:32;;;;;;;26.43;15.93;;;;;;;31.90;61.92;101015.88;4994761;28;70011;-37
2022/03/28 00:50:04;;;;;;;16.63;14.85;;;;;;;31.89;61.25;101000.63;4999195;28;67057;-36
2022/03/28 00:52:35;;;;;;;;;;;;;;;31.68;62.61;101012.75;4993398;28;70715;-37
2022/03/28 00:55:07;;;;;;;16.88;13.38;;;;;;;31.80;61.17;100967.56;4996615;28;66304;-37
2022/03/28 00:57:39;;;;;;;14.57;13.10;;;;;;;32.15;61.50;101017.72;4997178;28;70160;-36
2022/03/28 01:00:11;;;;;;;20.43;12.97;;;;;;;32.16;61.29;101019.38;4998956;28;66206;-37
2022/03/28 01:02:43;;;;;;;15.98;12.85;;;;;;;32.26;61.00;101023.25;4996642;28;70397;-37
2022/03/28 01:05:14;;;;;;;;;;;;;;;31.92;63.36;101019.19;4997545;28;66307;-36
2022/03/28 01:07:46;;;;;;;14.10;12.43;;;;;;;32.28;60.63;101023.81;4993432;28;71079;-37
2022/03/28 01:10:17;;;;;;;16.10;12.75;;;;;;;32.31;60.46;101017.13;4993206;28;66098;-36
2022/03/28 01:12:48;;;;;;;17.77;12.25;;;;;;;32.29;60.46;101005.69;4991856;28;69081;-36
2022/03/28 01:15:22;;;;;;;14.15;12.70;;;;;;;32.39;60.24;101014.09;4998711;28;65067;-36
2022/03/28 01:18:05;;;;;;;14.73;13.13;;;;;;;32.40;60.10;101021.19;4998836;28;70829;-37
2022/03/28 01:20:39;;;;;;;15.27;12.07;;;;;;;32.44;59.34;101022.38;4999704;28;66409;-37
2022/03/28 01:23:11;;;;;;;14.60;11.65;;;;;;;32.39;59.33;101018.69;4981277;28;69674;-36
2022/03/28 01:25:45;;;;;;;15.60;12.00;;;;;;;32.32;59.50;101007.94;4997406;28;66456;-36
2022/03/28 01:28:16;;;;;;;17.50;11.70;;;;;;;32.49;58.83;101025.28;5020297;28;70072;-36
2022/03/28 01:30:48;;;;;;;14.38;11.98;;;;;;;32.52;58.86;101028.63;5002284;28;67844;-35
2022/03/28 01:33:19;;;;;;;12.18;10.88;;;;;;;32.53;58.74;101024.81;5002764;28;69223;-35
2022/03/28 01:35:53;;;;;;;11.90;10.75;;;;;;;32.55;58.70;101028.97;5020795;28;66073;-35
2022/03/28 01:38:24;;;;;;;12.20;10.90;;;;;;;32.54;58.32;101031.91;5007009;28;70603;-35
2022/03/28 01:40:55;;;;;;;13.32;10.68;;;;;;;32.52;57.59;101024.00;5020293;28;66082;-35
2022/03/28 01:43:26;;;;;;;12.82;10.60;;;;;;;32.55;58.18;101022.72;5003149;28;69860;-36
2022/03/28 01:45:56;;;;;;;12.25;10.55;;;;;;;32.60;57.90;101033.72;5020645;28;66290;-36
2022/03/28 01:48:27;;;;;;;12.23;10.05;;;;;;;32.63;57.67;101031.38;5016580;28;70411;-36
2022/03/28 01:50:58;;;;;;;12.23;9.90;;;;;;;32.66;57.49;101030.91;5004580;28;65980;-35
2022/03/28 01:53:28;;;;;;;10.82;9.65;;;;;;;32.67;57.70;101037.19;5002448;28;69270;-35
2022/03/28 01:55:59;;;;;;;10.52;9.48;;;;;;;32.70;57.19;101042.16;5018008;28;65895;-35
2022/03/28 01:58:30;;;;;;;10.63;9.50;;;;;;;32.71;57.21;101043.81;5002638;28;68325;-35
2022/03/28 02:01:01;;;;;;;10.95;9.82;;;;;;;32.75;56.87;101042.28;5021093;28;66539;-34
2022/03/28 02:03:32;;;;;;;9.98;9.13;;;;;;;32.77;56.44;101053.75;5020309;28;70282;-35
2022/03/28 02:06:06;;;;;;;10.20;8.95;;;;;;;32.36;56.86;100978.44;5021526;28;66301;-35
2022/03/28 02:08:37;;;;;;;9.00;8.20;;;;;;;32.81;56.61;101054.94;4997258;28;70320;-35
2022/03/28 02:11:07;;;;;;;8.88;8.02;;;;;;;32.81;56.78;101054.13;4997484;28;65249;-35
2022/03/28 02:13:38;;;;;;;9.25;8.02;;;;;;;32.81;56.82;101049.50;4987112;28;69685;-36
2022/03/28 02:16:09;;;;;;;8.50;7.75;;;;;;;32.65;56.62;101020.28;5021922;28;68549;-35
2022/03/28 02:18:40;;;;;;;8.45;7.65;;;;;;;32.79;56.47;101046.22;5004525;28;68928;-39
2022/03/28 02:21:11;;;;;;;8.43;7.72;;;;;;;32.88;56.48;101061.13;5019532;28;65226;-35
2022/03/28 02:23:42;;;;;;;8.63;8.00;;;;;;;32.83;56.38;101041.97;5021114;28;69353;-35
2022/03/28 02:26:16;;;;;;;8.52;7.68;;;;;;;32.73;56.15;101017.25;5020544;28;66726;-35
2022/03/28 02:28:47;;;;;;;8.85;7.90;;;;;;;32.97;56.03;101058.09;5018625;28;69128;-36
2022/03/28 02:31:19;;;;;;;8.60;7.82;;;;;;;32.99;55.87;101048.66;5021224;28;66183;-36
2022/03/28 02:33:49;;;;;;;7.85;7.30;;;;;;;32.98;55.62;101057.03;5000170;28;69621;-36
2022/03/28 02:36:20;;;;;;;7.75;7.13;;;;;;;32.93;55.57;101042.25;5002118;28;66350;-36
2022/03/28 02:38:51;;;;;;;7.55;6.93;;;;;;;33.06;55.57;101056.75;5020634;28;70603;-36
2022/03/28 02:41:21;;;;;;;8.70;7.30;;;;;;;32.89;55.23;101019.31;5013578;28;65587;-36
2022/03/28 02:43:52;;;;;;;7.47;6.88;;;;;;;33.10;55.27;101049.81;4999790;28;70345;-36
2022/03/28 02:46:23;;;;;;;7.78;7.05;;;;;;;33.13;55.40;101047.44;4992660;28;65477;-36
2022/03/28 02:48:54;;;;;;;7.35;6.75;;;;;;;33.15;55.20;101049.91;5010344;28;70407;-35
2022/03/28 02:51:24;;;;;;;6.78;6.28;;;;;;;33.18;54.93;101052.16;5008781;28;66368;-35
2022/03/28 02:53:55;;;;;;;7.57;6.75;;;;;;;33.12;54.81;101034.88;5021172;28;69808;-35
2022/03/28 02:56:25;;;;;;;7.90;7.30;;;;;;;33.22;55.18;101047.94;4998615;28;65198;-35
2022/03/28 02:58:56;;;;;;;7.18;6.68;;;;;;;33.10;54.69;101025.34;5001032;28;70541;-36
2022/03/28 03:01:27;;;;;;;6.70;6.20;;;;;;;33.26;54.96;101042.84;5000119;28;66336;-35
2022/03/28 03:03:58;;;;;;;8.07;7.28;;;;;;;33.26;54.71;101035.50;5016676;28;69894;-36
2022/03/28 03:06:28;;;;;;;6.38;5.97;;;;;;;33.21;54.67;101032.69;5021160;28;65564;-36
2022/03/28 03:08:59;;;;;;;6.70;6.20;;;;;;;33.19;54.38;101018.50;5019641;28;70071;-35
2022/03/28 03:11:30;;;;;;;6.85;6.22;;;;;;;33.26;54.53;101019.19;4997542;28;66571;-36
2022/03/28 03:14:02;;;;;;;6.40;5.85;;;;;;;33.30;54.41;101034.00;5016528;28;70129;-36
2022/03/28 03:16:33;;;;;;;6.80;6.20;;;;;;;33.33;53.98;101025.38;5013843;28;66637;-36
2022/03/28 03:19:04;;;;;;;7.60;6.30;;;;;;;33.35;54.08;101034.13;5010015;28;69758;-36
2022/03/28 03:21:34;;;;;;;6.68;5.95;;;;;;;33.37;53.82;101026.56;4995065;28;64255;-36
2022/03/28 03:24:05;;;;;;;6.35;5.85;;;;;;;33.39;53.78;101029.06;5018737;28;69482;-37
2022/03/28 03:26:37;;;;;;;6.03;5.63;;;;;;;33.29;53.49;101017.91;4997623;28;66052;-35
2022/03/28 03:29:08;;;;;;;6.97;5.28;;;;;;;33.40;53.74;101029.88;4993893;28;70142;-37
2022/03/28 03:31:39;;;;;;;6.33;5.50;;;;;;;33.40;53.58;101027.16;4991474;28;66509;-35
2022/03/28 03:34:10;;;;;;;5.85;5.45;;;;;;;33.40;53.18;101024.44;5004839;28;70426;-37
2022/03/28 03:36:41;;;;;;;5.60;5.20;;;;;;;33.42;53.57;101023.13;4995062;28;66565;-37
2022/03/28 03:39:14;;;;;;;6.03;5.53;;;;;;;33.38;53.65;101011.91;4972814;28;70281;-36
2022/03/28 03:41:44;;;;;;;6.10;5.60;;;;;;;33.48;53.38;101010.50;4985050;28;65463;-36
2022/03/28 03:44:16;;;;;;;5.68;5.28;;;;;;;33.48;53.27;101019.47;5015410;28;70309;-36
2022/03/28 03:46:48;;;;;;;5.93;4.95;;;;;;;33.48;53.35;101010.50;4992374;28;66601;-37
2022/03/28 03:49:20;;;;;;;;;;;;;;;33.16;53.67;101008.09;4999553;28;69728;-36
2022/03/28 03:51:52;;;;;;;5.45;5.03;;;;;;;33.44;53.25;101003.88;4998458;28;67079;-37
2022/03/28 03:54:24;;;;;;;4.90;4.60;;;;;;;33.51;52.87;100999.16;4992753;28;69950;-36
2022/03/28 03:56:55;;;;;;;4.28;3.88;;;;;;;33.52;53.16;100995.38;4997830;28;66259;-36
2022/03/28 03:59:27;;;;;;;5.57;5.13;;;;;;;33.55;52.88;101000.38;4991057;28;71131;-37
2022/03/28 04:01:58;;;;;;;5.45;4.95;;;;;;;33.53;52.91;100997.06;4997751;28;66806;-38
2022/03/28 04:04:30;;;;;;;5.25;4.85;;;;;;;33.57;52.90;100992.78;5002984;28;70153;-36
2022/03/28 04:07:01;;;;;;;4.90;4.60;;;;;;;33.57;52.96;100976.47;4999684;28;65072;-38
2022/03/28 04:09:32;;;;;;;5.40;5.03;;;;;;;33.60;52.83;100989.63;4990647;28;69623;-36
2022/03/28 04:12:04;;;;;;;5.27;4.87;;;;;;;33.60;53.14;100984.19;4998794;28;66221;-36
2022/03/28 04:14:36;;;;;;;5.10;4.70;;;;;;;33.62;52.99;100973.03;4976482;28;70087;-36
2022/03/28 04:17:07;;;;;;;4.85;4.55;;;;;;;33.60;52.72;100956.97;4998188;28;65716;-35
2022/03/28 04:19:38;;;;;;;4.45;4.18;;;;;;;33.65;52.87;100967.94;4992234;28;69641;-37
2022/03/28 04:22:08;;;;;;;5.57;5.20;;;;;;;33.69;52.38;100952.81;4998260;28;66421;-36
2022/03/28 04:24:39;;;;;;;4.47;4.18;;;;;;;33.71;52.37;100958.88;4999878;28;70667;-35
2022/03/28 04:27:10;;;;;;;5.07;4.68;;;;;;;33.63;52.40;100937.47;5011219;28;65623;-36
2022/03/28 04:29:40;;;;;;;5.03;4.30;;;;;;;33.65;52.48;100923.59;5011429;28;70499;-36
2022/03/28 04:32:12;;;;;;;4.68;4.38;;;;;;;33.74;52.34;100943.94;5018143;28;64904;-36
2022/03/28 04:34:42;;;;;;;5.57;4.50;;;;;;;33.77;52.37;100938.88;5019188;28;70267;-36
2022/03/28 04:37:13;;;;;;;4.65;4.35;;;;;;;33.78;52.30;100926.91;5018198;28;66817;-36
2022/03/28 04:39:44;;;;;;;5.20;4.80;;;;;;;33.83;52.36;100930.81;5012353;28;69601;-36
2022/03/28 04:42:15;;;;;;;4.53;4.20;;;;;;;33.85;52.42;100939.53;5017587;28;65603;-36
2022/03/28 04:44:46;;;;;;;4.60;4.20;;;;;;;33.66;52.23;100896.19;5018459;28;70030;-36
2022/03/28 04:47:17;;;;;;;4.65;4.35;;;;;;;33.89;52.08;100924.41;5019877;28;66828;-36
2022/03/28 04:49:47;;;;;;;4.68;4.28;;;;;;;33.86;52.17;100905.84;5002186;28;69866;-36
2022/03/28 04:52:18;;;;;;;4.65;4.28;;;;;;;33.74;52.31;100881.34;5001647;28;66606;-36
2022/03/28 04:54:49;;;;;;;5.47;5.07;;;;;;;33.92;51.93;100900.25;5019607;28;70071;-37
2022/03/28 04:57:20;;;;;;;5.23;4.83;;;;;;;33.95;51.86;100896.22;5014395;28;65180;-36
2022/03/28 04:59:51;;;;;;;4.70;4.30;;;;;;;33.94;51.95;100889.16;4981987;28;69428;-37
2022/03/28 05:02:22;;;;;;;5.90;4.28;;;;;;;33.94;51.88;100873.63;5011043;28;67144;-36
2022/03/28 05:04:53;;;;;;;5.00;4.70;;;;;;;33.97;51.99;100873.16;5011447;28;69882;-37
2022/03/28 05:07:29;;;;;;;4.85;4.40;;;;;;;34.01;51.68;100868.03;4982320;28;65080;-35
2022/03/28 05:10:01;;;;;;;4.40;4.10;;;;;;;34.02;51.82;100872.44;4996062;28;70001;-36
2022/03/28 05:12:33;;;;;;;12.23;4.43;;;;;;;34.03;51.74;100865.91;4996617;28;66563;-36
2022/03/28 05:15:05;;;;;;;4.32;4.03;;;;;;;34.02;51.55;100847.94;5014830;28;70187;-36
2022/03/28 05:17:35;;;;;;;5.03;4.10;;;;;;;34.02;51.82;100832.44;5011411;28;65439;-36
2022/03/28 05:20:09;;;;;;;4.93;4.20;;;;;;;34.04;51.65;100834.88;5010224;28;69996;-35
2022/03/28 05:22:44;;;;;;;4.22;3.92;;;;;;;34.10;51.28;100839.41;5012021;28;66174;-36
2022/03/28 05:25:15;;;;;;;4.37;4.00;;;;;;;34.13;51.39;100838.06;5011348;28;71581;-35
2022/03/28 05:27:47;;;;;;;5.05;4.65;;;;;;;34.15;51.46;100834.03;4994798;28;66431;-35
2022/03/28 05:30:18;;;;;;;4.20;3.90;;;;;;;34.13;51.63;100828.03;5017638;28;70010;-36
2022/03/28 05:32:48;;;;;;;4.28;4.00;;;;;;;34.20;51.17;100827.88;5016254;28;66662;-36
2022/03/28 05:35:19;;;;;;;5.20;4.63;;;;;;;34.22;51.19;100825.75;5018429;28;70131;-36
2022/03/28 05:37:52;;;;;;;4.78;4.47;;;;;;;33.84;51.11;100763.75;5017525;28;65275;-36
2022/03/28 05:40:23;;;;;;;4.82;4.53;;;;;;;34.22;51.22;100806.69;5016805;28;69569;-36
2022/03/28 05:42:53;;;;;;;4.32;4.03;;;;;;;34.24;51.19;100802.66;5017176;28;65590;-36
2022/03/28 05:45:25;;;;;;;4.60;4.30;;;;;;;34.26;51.06;100803.22;4997370;28;69900;-36
2022/03/28 05:47:56;;;;;;;4.80;4.50;;;;;;;34.21;51.20;100785.97;5014159;28;66127;-36
2022/03/28 05:50:26;;;;;;;4.55;4.22;;;;;;;34.24;50.79;100780.88;4992796;28;69343;-36
2022/03/28 05:52:57;;;;;;;5.07;4.68;;;;;;;34.32;51.16;100782.34;5005681;28;66424;-38
2022/03/28 05:55:28;;;;;;;4.15;3.85;;;;;;;34.28;51.30;100764.03;5012450;28;70359;-36
2022/03/28 05:58:00;;;;;;;4.40;4.10;;;;;;;34.35;51.02;100773.69;4997515;28;65932;-36
2022/03/28 06:00:30;;;;;;;4.70;4.40;;;;;;;34.35;50.89;100764.69;5011373;28;70042;-37
2022/03/28 06:03:02;;;;;;;5.05;4.65;;;;;;;34.37;50.89;100760.66;5013854;28;66481;-36
2022/03/28 06:05:53;;;;;;;4.63;4.28;;;;;;;34.40;50.67;100753.88;5015808;28;69666;-36
2022/03/28 06:08:23;;;;;;;4.53;4.22;;;;;;;34.39;51.13;100744.88;5013034;28;65395;-37
2022/03/28 06:10:55;;;;;;;4.28;3.97;;;;;;;34.50;50.72;100753.25;5011174;28;70894;-36
2022/03/28 06:13:26;;;;;;;4.65;4.35;;;;;;;34.44;50.98;100727.81;5006622;28;65444;-36
2022/03/28 06:15:57;;;;;;;4.55;4.25;;;;;;;34.46;50.69;100726.50;5019774;28;69726;-35
2022/03/28 06:18:28;;;;;;;4.50;4.10;;;;;;;34.53;50.83;100720.88;5021330;28;65881;-36
2022/03/28 06:20:59;;;;;;;4.60;4.22;;;;;;;34.51;50.67;100709.41;5019712;28;70544;-36
2022/03/28 06:23:29;;;;;;;5.03;4.72;;;;;;;34.57;50.41;100707.59;5000624;28;66249;-36
2022/03/28 06:26:00;;;;;;;4.32;4.03;;;;;;;34.57;50.78;100692.06;5017296;28;69434;-36
2022/03/28 06:28:32;;;;;;;5.03;4.35;;;;;;;34.61;50.55;100693.25;4999989;28;66543;-36
2022/03/28 06:31:02;;;;;;;4.35;4.05;;;;;;;34.62;50.61;100683.97;5019002;28;69828;-37
2022/03/28 06:33:34;;;;;;;4.57;3.95;;;;;;;34.51;50.42;100654.91;5021150;28;66766;-36
2022/03/28 06:36:05;;;;;;;4.47;4.18;;;;;;;34.69;49.85;100667.47;5020649;28;70538;-35
2022/03/28 06:38:36;;;;;;;4.43;4.13;;;;;;;34.70;50.46;100652.75;5000086;28;66021;-36
2022/03/28 06:41:08;;;;;;;4.00;3.70;;;;;;;34.74;50.29;100653.91;5017739;28;69761;-35
2022/03/28 06:43:40;;;;;;;4.50;4.20;;;;;;;34.74;49.95;100636.72;5000991;28;65081;-36
2022/03/28 06:46:10;;;;;;;4.40;4.10;;;;;;;34.77;50.46;100628.03;5018555;28;71738;-36
2022/03/28 06:48:41;;;;;;;4.28;3.97;;;;;;;34.72;50.25;100622.56;5020517;28;65676;-36
2022/03/28 06:51:12;;;;;;;4.78;4.47;;;;;;;34.76;49.91;100612.78;4996176;28;69172;-36
2022/03/28 06:53:48;;;;;;;4.38;3.97;;;;;;;34.78;49.92;100603.28;5022278;28;66116;-36
2022/03/28 06:56:19;;;;;;;4.28;3.97;;;;;;;34.84;50.27;100598.72;5020044;28;70497;-36
2022/03/28 06:58:52;;;;;;;4.20;3.97;;;;;;;34.80;50.22;100586.66;5019565;28;65837;-36
2022/03/28 07:01:23;;;;;;;4.28;3.97;;;;;;;34.85;50.16;100573.94;5020921;28;70877;-37
2022/03/28 07:03:55;;;;;;;4.50;4.20;;;;;;;34.77;50.06;100562.66;5001337;28;67838;-36
2022/03/28 07:06:25;;;;;;;4.55;4.25;;;;;;;34.85;49.80;100548.59;5013904;28;69671;-37
2022/03/28 07:08:56;;;;;;;3.97;3.70;;;;;;;34.88;49.94;100538.00;4999909;28;65225;-36
2022/03/28 07:11:26;;;;;;;4.30;4.00;;;;;;;34.92;50.16;100530.16;5022006;28;70198;-36
2022/03/28 07:13:57;;;;;;;3.90;3.60;;;;;;;34.93;49.81;100526.31;5000826;28;65548;-36
2022/03/28 07:16:28;;;;;;;4.60;4.30;;;;;;;34.95;49.67;100526.91;5020737;28;71687;-35
2022/03/28 07:18:59;;;;;;;4.17;3.97;;;;;;;35.00;49.47;100532.41;5000142;28;65833;-35
2022/03/28 07:21:30;;;;;;;4.00;3.78;;;;;;;34.97;49.37;100500.22;5021443;28;70561;-36
2022/03/28 07:24:00;;;;;;;4.22;3.90;;;;;;;35.08;49.94;100518.34;5018009;28;66292;-35
2022/03/28 07:26:31;;;;;;;4.35;4.05;;;;;;;35.14;49.34;100514.59;5021119;28;70384;-36
2022/03/28 07:29:04;;;;;;;4.18;3.95;;;;;;;35.11;49.23;100501.47;5014103;28;65664;-35
2022/03/28 07:31:36;;;;;;;3.95;3.75;;;;;;;35.24;49.62;100505.66;5019780;28;69145;-36
2022/03/28 07:36:57;;;;;;;3.72;3.53;;;;;;;35.25;48.91;100492.88;5018411;28;69504;-36
2022/03/28 07:39:29;;;;;;;4.00;3.80;;;;;;;35.32;48.68;100480.66;5021508;28;65699;-35
2022/03/28 07:41:59;;;;;;;4.13;3.93;;;;;;;35.41;48.54;100489.19;5017874;28;69843;-36
2022/03/28 07:44:31;;;;;;;;;;;;;;;35.19;49.22;100491.16;5013236;28;66216;-37
2022/03/28 07:47:05;;;;;;;4.28;3.97;;;;;;;35.33;49.17;100465.13;5014329;28;70306;-36
2022/03/28 07:49:38;;;;;;;4.40;4.10;;;;;;;35.50;48.94;100481.34;5018736;28;66622;-35
2022/03/28 07:52:08;;;;;;;4.75;4.45;;;;;;;35.54;48.81;100472.34;5020301;28;70060;-36
2022/03/28 07:54:39;;;;;;;4.23;4.03;;;;;;;35.56;48.35;100472.97;5020942;28;65391;-35
2022/03/28 07:57:11;;;;;;;4.43;4.13;;;;;;;35.58;48.35;100468.06;5013024;28;69411;-37
2022/03/28 07:59:43;;;;;;;6.05;3.88;;;;;;;35.58;48.35;100478.16;5019912;28;65890;-35
2022/03/28 08:02:15;;;;;;;5.43;4.45;;;;;;;35.51;48.69;100461.16;5019429;28;69934;-38
2022/03/28 08:04:48;;;;;;;5.93;4.10;;;;;;;35.51;48.88;100467.44;5018947;28;66059;-36
2022/03/28 08:07:18;;;;;;;4.60;4.30;;;;;;;35.52;48.88;100463.63;5019057;28;69338;-36
2022/03/28 08:09:51;;;;;;;4.90;4.50;;;;;;;35.59;48.83;100496.16;5020087;28;65813;-37
2022/03/28 08:12:22;;;;;;;4.80;4.28;;;;;;;35.57;48.77;100520.97;5010719;28;69702;-37
2022/03/28 08:14:53;;;;;;;4.97;4.57;;;;;;;35.60;49.23;100551.53;5019058;28;65434;-36
2022/03/28 08:17:24;;;;;;;5.25;4.85;;;;;;;35.60;49.10;100622.47;5012900;28;70008;-35
2022/03/28 08:19:55;;;;;;;8.85;4.63;;;;;;;35.58;49.31;100669.13;5018716;28;66367;-35
2022/03/28 08:22:25;;;;;;;6.18;5.22;;;;;;;35.62;49.70;100647.59;5019246;28;69884;-38
2022/03/28 08:24:56;;;;;;;11.00;5.28;;;;;;;35.56;49.66;100614.81;5014167;28;65981;-36
2022/03/28 08:27:26;;;;;;;9.75;5.50;;;;;;;35.46;51.70;100611.94;5019384;28;69061;-36
2022/03/28 08:29:57;;;;;;;6.70;6.00;;;;;;;35.27;51.99;100586.13;4998370;28;66245;-35
2022/03/28 08:32:28;;;;;;;8.05;5.70;;;;;;;35.42;52.46;100605.38;4996146;28;70864;-37
2022/03/28 08:34:59;;;;;;;6.30;4.77;;;;;;;35.39;52.33;100592.25;4997813;28;65914;-36
2022/03/28 08:37:31;;;;;;;6.10;5.03;;;;;;;35.34;52.07;100581.31;5014127;28;69817;-35
2022/03/28 08:40:03;;;;;;;6.50;5.03;;;;;;;35.39;51.21;100594.16;5015335;28;66300;-36
2022/03/28 08:42:34;;;;;;;5.15;4.70;;;;;;;35.27;51.70;100576.06;5020159;28;69104;-36
2022/03/28 08:45:07;;;;;;;6.25;4.63;;;;;;;35.33;51.56;100579.66;5018997;28;65169;-36
2022/03/28 08:47:43;;;;;;;6.57;4.20;;;;;;;35.00;51.97;100488.81;5018945;28;69836;-35
2022/03/28 08:50:35;;;;;;;4.90;4.50;;;;;;;35.31;51.66;100505.47;5019339;28;65045;-36
2022/03/28 08:53:06;;;;;;;5.10;4.60;;;;;;;35.28;51.07;100500.53;5017482;28;69147;-37
2022/03/28 08:55:45;;;;;;;5.28;4.35;;;;;;;34.96;51.22;100427.69;4964000;28;65435;-36
2022/03/28 08:58:15;;;;;;;4.50;4.10;;;;;;;35.25;51.70;100484.69;5016339;28;70433;-36
2022/03/28 09:00:46;;;;;;;5.47;4.60;;;;;;;35.18;51.47;100484.91;5002032;28;67833;-42
2022/03/28 09:03:17;;;;;;;5.10;4.60;;;;;;;35.10;51.83;100494.38;5017560;28;70252;-36
2022/03/28 09:05:50;;;;;;;4.70;4.30;;;;;;;35.10;51.89;100509.91;5015226;28;66457;-36
2022/03/28 09:08:24;;;;;;;5.35;4.65;;;;;;;35.03;51.84;100506.53;4992849;28;70560;-36
2022/03/28 09:10:55;;;;;;;4.95;4.55;;;;;;;34.97;51.97;100519.28;5017842;28;66206;-36
2022/03/28 09:13:25;;;;;;;5.13;4.72;;;;;;;35.00;51.96;100526.97;5013971;28;70517;-36
2022/03/28 09:16:01;;;;;;;4.90;4.50;;;;;;;34.97;52.15;100535.66;5015308;28;65797;-36
2022/03/28 09:18:35;;;;;;;4.95;4.53;;;;;;;34.93;52.67;100531.78;4978999;28;68916;-36
2022/03/28 09:21:16;;;;;;;10.32;4.43;;;;;;;34.86;52.97;100542.06;4997956;28;66142;-35
2022/03/28 09:23:49;;;;;;;4.95;4.65;;;;;;;34.86;52.41;100558.44;5017741;28;70346;-35
2022/03/28 09:26:26;;;;;;;4.90;4.32;;;;;;;34.37;52.93;100501.13;5010193;28;66089;-36
2022/03/28 09:29:00;;;;;;;6.10;5.15;;;;;;;34.79;52.59;100568.69;5016054;28;70063;-35
2022/03/28 09:31:40;;;;;;;5.05;4.65;;;;;;;34.33;53.14;100510.91;4999009;28;66189;-36
2022/03/28 09:34:16;;;;;;;4.88;4.47;;;;;;;34.70;53.33;100577.31;5014869;28;69632;-38
2022/03/28 09:36:50;;;;;;;5.10;4.70;;;;;;;34.67;53.40;100587.88;5016684;28;66204;-36
2022/03/28 09:39:22;;;;;;;5.20;4.72;;;;;;;34.62;53.30;100588.63;5000761;28;69984;-35
2022/03/28 09:42:10;;;;;;;4.88;4.57;;;;;;;34.50;53.56;100585.19;5017136;28;66521;-36
2022/03/28 09:44:44;;;;;;;5.50;5.07;;;;;;;34.15;53.78;100515.56;4997664;28;68735;-35
2022/03/28 09:47:25;;;;;;;4.75;4.35;;;;;;;34.51;53.97;100605.91;5001732;28;65371;-35
2022/03/28 09:49:57;;;;;;;5.17;4.67;;;;;;;34.48;53.46;100611.84;5016290;28;67981;-37
2022/03/28 09:52:32;;;;;;;5.65;5.15;;;;;;;34.46;53.85;100642.06;5021911;28;65387;-36
2022/03/28 09:55:06;;;;;;;6.28;5.18;;;;;;;34.24;54.16;100647.47;4998877;28;70203;-35
2022/03/28 09:57:37;;;;;;;5.75;5.05;;;;;;;34.40;53.77;100674.91;5020093;28;66488;-36
2022/03/28 10:00:20;;;;;;;5.70;5.20;;;;;;;34.30;54.23;100663.84;5000749;28;70020;-35
2022/03/28 10:02:52;;;;;;;5.65;5.25;;;;;;;34.35;54.03;100672.94;5021590;28;66301;-36
2022/03/28 10:05:23;;;;;;;6.05;5.15;;;;;;;34.17;54.31;100638.63;5001196;28;69560;-36
2022/03/28 10:07:57;;;;;;;5.57;5.18;;;;;;;34.29;54.32;100673.09;5017235;28;65769;-36
2022/03/28 10:10:28;;;;;;;6.78;6.18;;;;;;;34.23;53.98;100670.31;5014804;28;70210;-36
2022/03/28 10:13:01;;;;;;;7.10;6.40;;;;;;;34.26;54.36;100683.41;5019819;28;65752;-37
2022/03/28 10:15:31;;;;;;;6.93;6.50;;;;;;;33.94;56.32;100683.16;5019964;28;70561;-36
2022/03/28 10:18:03;;;;;;;8.68;7.60;;;;;;;33.71;58.03;100683.25;4996102;28;66202;-36
2022/03/28 10:20:34;;;;;;;9.82;8.50;;;;;;;33.52;59.42;100690.78;5011097;28;69805;-37
2022/03/28 10:23:05;;;;;;;;;;;;;;;33.14;60.67;100712.06;5013210;28;65191;-37
2022/03/28 10:25:38;;;;;;;14.60;9.77;;;;;;;33.18;59.56;100706.94;5020683;28;70484;-36
2022/03/28 10:28:09;;;;;;;18.33;11.23;;;;;;;32.96;59.21;100708.63;4999719;28;65099;-36
2022/03/28 10:30:42;;;;;;;20.65;12.23;;;;;;;32.86;59.24;100698.38;5019809;28;69082;-39
2022/03/28 10:33:21;;;;;;;24.10;12.13;;;;;;;32.71;59.50;100688.00;5017257;28;65373;-35
2022/03/28 10:35:56;;;;;;;13.77;12.05;;;;;;;32.65;60.06;100680.78;5020057;28;70133;-36
2022/03/28 10:38:27;;;;;;;17.02;10.90;;;;;;;32.57;60.26;100689.28;5020492;28;65446;-36
2022/03/28 10:41:05;;;;;;;18.13;12.05;;;;;;;32.37;59.75;100681.47;5018042;28;69032;-35
2022/03/28 10:43:36;;;;;;;23.60;12.20;;;;;;;32.39;60.48;100682.88;4997897;28;65318;-41
2022/03/28 10:46:09;;;;;;;14.10;12.45;;;;;;;31.88;60.71;100594.81;4998389;28;68756;-37
2022/03/28 10:48:54;;;;;;;23.60;14.02;;;;;;;31.90;61.19;100627.97;5019467;28;66273;-37
2022/03/28 10:51:32;;;;;;;16.10;13.75;;;;;;;32.25;60.58;100695.03;5002231;28;69741;-36
2022/03/28 10:54:05;;;;;;;22.10;14.63;;;;;;;32.20;61.03;100703.03;5019844;28;65511;-43
2022/03/28 10:56:46;;;;;;;17.83;14.25;;;;;;;32.11;60.85;100701.75;5017061;28;70724;-36
2022/03/28 10:59:21;;;;;;;20.67;14.27;;;;;;;31.75;60.41;100654.69;4998052;28;66408;-35
2022/03/28 11:01:52;;;;;;;24.73;14.35;;;;;;;31.82;60.21;100677.13;5018608;28;70441;-35
2022/03/28 11:04:23;;;;;;;16.75;14.70;;;;;;;31.98;60.24;100736.16;4977637;28;66507;-35
2022/03/28 11:07:00;;;;;;;20.02;15.00;;;;;;;31.94;60.19;100745.00;5014226;28;70371;-36
2022/03/28 11:09:50;;;;;;;20.75;15.63;;;;;;;31.47;59.71;100706.81;5017163;28;65344;-36
2022/03/28 11:12:20;;;;;;;20.88;15.60;;;;;;;31.80;59.97;100750.56;5007896;28;69706;-36
2022/03/28 11:14:51;;;;;;;27.60;16.48;;;;;;;31.74;60.40;100751.50;5019343;28;66303;-35
2022/03/28 11:17:29;;;;;;;20.25;15.60;;;;;;;31.39;60.38;100689.78;5016232;28;69507;-35
2022/03/28 11:20:14;;;;;;;24.42;16.52;;;;;;;31.37;61.37;100701.91;5005281;28;65238;-35
2022/03/28 11:22:56;;;;;;;22.45;16.50;;;;;;;31.63;61.29;100743.31;5018429;28;69285;-36
2022/03/28 11:25:34;;;;;;;;;;;;;;;31.47;62.07;100782.69;4995282;28;66092;-38
2022/03/28 11:28:14;;;;;;;26.42;17.33;;;;;;;31.10;62.10;100664.28;5018091;28;69025;-40
2022/03/28 11:30:45;;;;;;;24.42;17.73;;;;;;;31.86;62.34;100794.94;5020273;28;66090;-38
2022/03/28 11:33:36;;;;;;;21.17;18.23;;;;;;;31.78;61.90;100800.66;5016604;28;69450;-41
2022/03/28 11:36:07;;;;;;;36.73;18.27;;;;;;;31.87;62.11;100793.03;5024695;28;65576;-37
2022/03/28 11:38:45;;;;;;;32.97;18.73;;;;;;;31.87;62.38;100793.84;5017212;28;69644;-39
2022/03/28 11:41:18;;;;;;;24.65;20.08;;;;;;;31.55;62.37;100742.56;5017470;28;66351;-37
2022/03/28 11:43:54;;;;;;;26.85;19.13;;;;;;;31.90;62.07;100804.28;5002180;28;69462;-38
2022/03/28 11:46:28;;;;;;;28.55;19.08;;;;;;;31.93;62.41;100813.84;4997966;28;65530;-36
2022/03/28 11:49:09;;;;;;;22.05;18.38;;;;;;;31.89;62.46;100802.59;5004525;28;69642;-35